Emden — 3ERP5 — position and weather

sailwx.info

Track history (hours):
 
Tides and Currents Weather Stations Pressure Air Temp Water Temp Dewpoint Dewpoint Depression Visibility Wind Speed Wind Dir Waves Ship Positions

Emden

Last reported at 2015-Jul-03 21:29 UTC. Time now 2015-Jul-04 19:06 UTC.
Position N 46°40' W 005°14'.

Length 177 m; draft 7.6 m.

Type: Ship. MMSI: 355051000.

Date/timePositionNaut miles runAvg speedWind from/ knotsBaromVisibWave heightAir tempDewpointWater temp
2015-Jul-03 21:29N 46°40' W 005°14'1617.2
2015-Jul-03 20:33N 46°55' W 005°22'1616.4
2015-Jul-03 19:33N 47°10' W 005°30'19515.8
2015-Jul-03 07:09N 50°25' W 005°60'2515.2
2015-Jul-03 05:32N 50°49' W 005°60'2015.2
2015-Jul-03 04:14N 51°09' W 005°60'1216.0
2015-Jul-03 03:30N 51°21' W 006°00'1617.1
2015-Jul-03 02:33N 51°37' W 006°00'1817.9
2015-Jul-03 01:33N 51°54' W 005°55'1817.9
2015-Jul-03 00:33N 52°12' W 005°54'1717.1
2015-Jul-02 23:33N 52°29' W 005°53'1616.1
2015-Jul-02 22:33N 52°46' W 005°52'6 0.2
2015-Jul-01 17:07N 52°40' W 005°50'915.5
2015-Jul-01 16:33N 52°32' W 005°49'1414.5
2015-Jul-01 15:34N 52°17' W 005°48'1313.2
2015-Jul-01 14:34N 52°04' W 005°47'1412.8
2015-Jul-01 13:29N 51°50' W 005°45'1213.3
2015-Jul-01 12:34N 51°38' W 005°51'2813.8
2015-Jul-01 10:30N 51°10' W 005°51'1414.2
2015-Jul-01 09:33N 50°57' W 005°52'1414.1
2015-Jul-01 08:33N 50°42' W 005°52'1413.8
2015-Jul-01 07:31N 50°28' W 005°52'1313.2
2015-Jul-01 06:33N 50°15' W 005°53'1413.2
2015-Jul-01 05:32N 50°02' W 005°53'8912.8
2015-Jun-30 22:33N 49°57' W 003°35'1515.5
2015-Jun-30 21:33N 49°59' W 003°11'1414.4
2015-Jun-30 20:33N 50°02' W 002°49'1313.1
2015-Jun-30 19:33N 50°06' W 002°29'1212.1
2015-Jun-30 18:33N 50°09' W 002°11'1211.9
2015-Jun-30 17:33N 50°12' W 001°53'1413.0
2015-Jun-30 16:31N 50°16' W 001°33'1414.5
2015-Jun-30 15:33N 50°20' W 001°12'1616.2
2015-Jun-30 14:33N 50°24' W 000°48'1716.9
2015-Jun-30 13:33N 50°29' W 000°22'1616.2
2015-Jun-30 12:33N 50°33' E 000°03'1615.6
2015-Jun-30 11:33N 50°37' E 000°26'1514.6
2015-Jun-30 10:33N 50°44' E 000°47'1413.9
2015-Jun-30 09:33N 50°52' E 001°04'1413.7
2015-Jun-30 08:33N 51°01' E 001°21'1515.2
2015-Jun-30 07:33N 51°10' E 001°40'1616.2
2015-Jun-30 06:33N 51°23' E 001°56'1616.1
2015-Jun-30 05:33N 51°36' E 002°12'1515.4
2015-Jun-30 04:33N 51°47' E 002°28'1414.5
2015-Jun-30 03:33N 51°58' E 002°44'1413.7
2015-Jun-30 02:33N 52°10' E 002°56'1313.3
2015-Jun-30 01:33N 52°20' E 003°10'1313.2
2015-Jun-30 00:33N 52°31' E 003°23'1313.3
2015-Jun-29 23:33N 52°41' E 003°36'1414.2
2015-Jun-29 22:33N 52°52' E 003°51'1514.9
2015-Jun-29 21:33N 53°02' E 004°09'1514.8
2015-Jun-29 20:33N 53°13' E 004°26'1515.1
2015-Jun-29 19:33N 53°27' E 004°36'1413.6
2015-Jun-29 18:33N 53°32' E 004°57'1313.3
2015-Jun-29 17:33N 53°37' E 005°18'1313.2
2015-Jun-29 16:33N 53°41' E 005°39'1313.3
2015-Jun-29 15:33N 53°44' E 006°01'1312.6
2015-Jun-29 14:33N 53°38' E 006°20'1111.4
2015-Jun-29 13:33N 53°35' E 006°38'1515.4
2015-Jun-29 12:34N 53°24' E 006°57'9 9.1
2015-Jun-29 11:33N 53°20' E 007°11'0 0.0
2015-Jun-29 10:31N 53°20' E 007°11'0 0.0
2015-Jun-29 09:31N 53°20' E 007°11'0 0.0
2015-Jun-29 08:31N 53°20' E 007°11'0 0.0
2015-Jun-29 07:31N 53°20' E 007°11'0 0.0
2015-Jun-29 06:31N 53°20' E 007°11'0 0.0
2015-Jun-29 05:31N 53°20' E 007°11'0 0.0
2015-Jun-29 04:31N 53°20' E 007°11'0 0.0
2015-Jun-29 03:31N 53°20' E 007°11'0 0.0
2015-Jun-29 02:31N 53°20' E 007°11'0 0.0
2015-Jun-29 01:31N 53°20' E 007°11'0 0.0
2015-Jun-29 00:28N 53°20' E 007°11'0 0.0
2015-Jun-28 23:31N 53°20' E 007°11'0 0.0
2015-Jun-28 22:31N 53°20' E 007°11'0 0.0
2015-Jun-28 21:31N 53°20' E 007°11'0 0.0
2015-Jun-28 20:34N 53°20' E 007°11'0 0.0
2015-Jun-28 19:33N 53°20' E 007°11'0 0.0
2015-Jun-28 18:33N 53°20' E 007°11'0 0.0
2015-Jun-28 17:33N 53°20' E 007°11'0 0.0
2015-Jun-28 16:33N 53°20' E 007°11'0 0.0
2015-Jun-28 15:30N 53°20' E 007°11'0 0.0
2015-Jun-28 14:33N 53°20' E 007°11'0 0.0
2015-Jun-28 13:33N 53°20' E 007°11'0 0.0
2015-Jun-28 12:33N 53°20' E 007°11'0 0.0
2015-Jun-28 11:33N 53°20' E 007°11'0 0.0
2015-Jun-28 10:33N 53°20' E 007°11'0 0.0
2015-Jun-28 09:33N 53°20' E 007°11'0 0.0
2015-Jun-28 08:33N 53°20' E 007°11'0 0.0
2015-Jun-28 07:33N 53°20' E 007°11'0 0.0
2015-Jun-28 06:33N 53°20' E 007°11'0 0.0
2015-Jun-28 05:33N 53°20' E 007°11'0 0.0
2015-Jun-28 04:30N 53°20' E 007°11'0 0.0
2015-Jun-28 03:33N 53°20' E 007°11'0 0.0
2015-Jun-28 02:33N 53°20' E 007°11'0 0.0
2015-Jun-28 01:33N 53°20' E 007°11'0 0.0
2015-Jun-28 00:33N 53°20' E 007°11'0 0.0
2015-Jun-27 23:30N 53°20' E 007°11'0 0.0
2015-Jun-27 22:33N 53°20' E 007°11'0 0.0
2015-Jun-27 21:33N 53°20' E 007°11'0 0.0
2015-Jun-27 20:33N 53°20' E 007°11'0 0.0
2015-Jun-27 19:33N 53°20' E 007°11'0 0.0
2015-Jun-27 18:33N 53°20' E 007°11'0 0.0
2015-Jun-27 17:33N 53°20' E 007°11'0 0.0
2015-Jun-27 16:33N 53°20' E 007°11'0 0.0
2015-Jun-27 15:33N 53°20' E 007°11'0 0.0
2015-Jun-27 14:33N 53°20' E 007°11'0 0.0
2015-Jun-27 13:33N 53°20' E 007°11'0 0.0
2015-Jun-27 12:33N 53°20' E 007°11'0 0.0
2015-Jun-27 11:33N 53°20' E 007°11'0 0.0
2015-Jun-27 10:32N 53°20' E 007°11'0 0.0
2015-Jun-27 09:32N 53°20' E 007°11'0 0.0
2015-Jun-27 08:32N 53°20' E 007°11'0 0.0
2015-Jun-27 07:29N 53°20' E 007°11'0 0.0
2015-Jun-27 06:32N 53°20' E 007°11'0 0.0
2015-Jun-27 05:32N 53°20' E 007°11'0 0.0
2015-Jun-27 04:32N 53°20' E 007°11'0 0.0
2015-Jun-27 03:32N 53°20' E 007°11'0 0.0
2015-Jun-27 02:32N 53°20' E 007°11'0 0.0
2015-Jun-27 01:32N 53°20' E 007°11'0 0.0
2015-Jun-27 00:32N 53°20' E 007°11'0 0.0
2015-Jun-26 23:32N 53°20' E 007°11'0 0.0
2015-Jun-26 22:29N 53°20' E 007°11'0 0.0
2015-Jun-26 21:34N 53°20' E 007°11'5 4.6
2015-Jun-26 20:34N 53°19' E 007°03'7 6.6
2015-Jun-26 19:34N 53°25' E 006°56'7 7.3
2015-Jun-26 18:34N 53°30' E 006°48'1110.9
2015-Jun-26 17:33N 53°37' E 006°34'10 9.5
2015-Jun-26 16:33N 53°39' E 006°18'7 7.6
2015-Jun-26 15:34N 53°41' E 006°06'1515.0
2015-Jun-26 14:33N 53°37' E 005°41'1615.7
2015-Jun-26 13:33N 53°32' E 005°16'1616.0
2015-Jun-26 12:33N 53°26' E 004°51'1615.7
2015-Jun-26 11:33N 53°14' E 004°34'1616.2
2015-Jun-26 10:33N 52°60' E 004°21'1615.8
2015-Jun-26 09:33N 52°46' E 004°09'1615.5
2015-Jun-26 08:33N 52°34' E 003°51'1515.2
2015-Jun-26 07:33N 52°24' E 003°33'1514.8
2015-Jun-26 06:33N 52°14' E 003°15'1414.4
2015-Jun-26 05:33N 52°03' E 002°59'1413.9
2015-Jun-26 04:34N 51°52' E 002°46'1413.7
2015-Jun-26 03:33N 51°42' E 002°31'1413.6
2015-Jun-26 02:34N 51°32' E 002°17'1413.8
2015-Jun-26 01:33N 51°19' E 002°07'1313.0
2015-Jun-26 00:33N 51°11' E 001°52'1414.0
2015-Jun-25 23:33N 51°01' E 001°36'1414.2
2015-Jun-25 22:33N 50°48' E 001°25'1414.3
2015-Jun-25 21:33N 50°37' E 001°11'1414.2
2015-Jun-25 20:33N 50°28' E 000°54'1414.3
2015-Jun-25 19:33N 50°24' E 000°32'1414.1
2015-Jun-25 18:31N 50°21' E 000°10'1414.5
2015-Jun-25 17:33N 50°18' W 000°12'1515.0
2015-Jun-25 16:33N 50°13' W 000°34'1615.7
2015-Jun-25 15:33N 50°09' W 000°58'1616.2
2015-Jun-25 14:33N 50°05' W 001°22'1716.6
2015-Jun-25 13:33N 50°01' W 001°47'1616.4
2015-Jun-25 12:33N 49°56' W 002°12'1515.5
2015-Jun-25 11:33N 49°52' W 002°35'1514.6
2015-Jun-25 10:33N 49°48' W 002°57'1614.3
2015-Jun-25 09:26N 49°40' W 003°18'1314.2
2015-Jun-25 08:33N 49°33' W 003°35'1414.2
2015-Jun-25 07:33N 49°26' W 003°53'1513.9
2015-Jun-25 06:29N 49°19' W 004°13'1313.7
2015-Jun-25 05:33N 49°13' W 004°31'1413.8
2015-Jun-25 04:33N 49°05' W 004°48'1413.8
2015-Jun-25 03:33N 48°58' W 005°07'1413.8
2015-Jun-25 02:30N 48°51' W 005°26'1413.5
2015-Jun-25 01:26N 48°40' W 005°40'1214.1
2015-Jun-25 00:33N 48°30' W 005°49'1614.4
2015-Jun-24 23:28N 48°16' W 006°00'1314.4
2015-Jun-24 22:33N 48°04' W 006°09'1514.6
2015-Jun-24 21:33N 47°51' W 006°19'1514.8
2015-Jun-24 20:33N 47°38' W 006°29'1515.0
2015-Jun-24 19:33N 47°24' W 006°39'1514.7
2015-Jun-24 18:33N 47°11' W 006°48'  
Track history (hours):
 
Tides and Currents Weather Stations Pressure Air Temp Water Temp Dewpoint Dewpoint Depression Visibility Wind Speed Wind Dir Waves Ship Positions

Emden

Last reported at 2015-Jul-03 21:29 UTC. Time now 2015-Jul-04 19:06 UTC.
Position N 46°40' W 005°14'.

Length 177 m; draft 7.6 m.

Type: Ship. MMSI: 355051000.

Date/timePositionNaut miles runAvg speedWind from/ knotsBaromVisibWave heightAir tempDewpointWater temp
2015-Jul-03 21:29N 46°40' W 005°14'1617.2
2015-Jul-03 20:33N 46°55' W 005°22'1616.4
2015-Jul-03 19:33N 47°10' W 005°30'19515.8
2015-Jul-03 07:09N 50°25' W 005°60'2515.2
2015-Jul-03 05:32N 50°49' W 005°60'2015.2
2015-Jul-03 04:14N 51°09' W 005°60'1216.0
2015-Jul-03 03:30N 51°21' W 006°00'1617.1
2015-Jul-03 02:33N 51°37' W 006°00'1817.9
2015-Jul-03 01:33N 51°54' W 005°55'1817.9
2015-Jul-03 00:33N 52°12' W 005°54'1717.1
2015-Jul-02 23:33N 52°29' W 005°53'1616.1
2015-Jul-02 22:33N 52°46' W 005°52'6 0.2
2015-Jul-01 17:07N 52°40' W 005°50'915.5
2015-Jul-01 16:33N 52°32' W 005°49'1414.5
2015-Jul-01 15:34N 52°17' W 005°48'1313.2
2015-Jul-01 14:34N 52°04' W 005°47'1412.8
2015-Jul-01 13:29N 51°50' W 005°45'1213.3
2015-Jul-01 12:34N 51°38' W 005°51'2813.8
2015-Jul-01 10:30N 51°10' W 005°51'1414.2
2015-Jul-01 09:33N 50°57' W 005°52'1414.1
2015-Jul-01 08:33N 50°42' W 005°52'1413.8
2015-Jul-01 07:31N 50°28' W 005°52'1313.2
2015-Jul-01 06:33N 50°15' W 005°53'1413.2
2015-Jul-01 05:32N 50°02' W 005°53'8912.8
2015-Jun-30 22:33N 49°57' W 003°35'1515.5
2015-Jun-30 21:33N 49°59' W 003°11'1414.4
2015-Jun-30 20:33N 50°02' W 002°49'1313.1
2015-Jun-30 19:33N 50°06' W 002°29'1212.1
2015-Jun-30 18:33N 50°09' W 002°11'1211.9
2015-Jun-30 17:33N 50°12' W 001°53'1413.0
2015-Jun-30 16:31N 50°16' W 001°33'1414.5
2015-Jun-30 15:33N 50°20' W 001°12'1616.2
2015-Jun-30 14:33N 50°24' W 000°48'1716.9
2015-Jun-30 13:33N 50°29' W 000°22'1616.2
2015-Jun-30 12:33N 50°33' E 000°03'1615.6
2015-Jun-30 11:33N 50°37' E 000°26'1514.6
2015-Jun-30 10:33N 50°44' E 000°47'1413.9
2015-Jun-30 09:33N 50°52' E 001°04'1413.7
2015-Jun-30 08:33N 51°01' E 001°21'1515.2
2015-Jun-30 07:33N 51°10' E 001°40'1616.2
2015-Jun-30 06:33N 51°23' E 001°56'1616.1
2015-Jun-30 05:33N 51°36' E 002°12'1515.4
2015-Jun-30 04:33N 51°47' E 002°28'1414.5
2015-Jun-30 03:33N 51°58' E 002°44'1413.7
2015-Jun-30 02:33N 52°10' E 002°56'1313.3
2015-Jun-30 01:33N 52°20' E 003°10'1313.2
2015-Jun-30 00:33N 52°31' E 003°23'1313.3
2015-Jun-29 23:33N 52°41' E 003°36'1414.2
2015-Jun-29 22:33N 52°52' E 003°51'1514.9
2015-Jun-29 21:33N 53°02' E 004°09'1514.8
2015-Jun-29 20:33N 53°13' E 004°26'1515.1
2015-Jun-29 19:33N 53°27' E 004°36'1413.6
2015-Jun-29 18:33N 53°32' E 004°57'1313.3
2015-Jun-29 17:33N 53°37' E 005°18'1313.2
2015-Jun-29 16:33N 53°41' E 005°39'1313.3
2015-Jun-29 15:33N 53°44' E 006°01'1312.6
2015-Jun-29 14:33N 53°38' E 006°20'1111.4
2015-Jun-29 13:33N 53°35' E 006°38'1515.4
2015-Jun-29 12:34N 53°24' E 006°57'9 9.1
2015-Jun-29 11:33N 53°20' E 007°11'0 0.0
2015-Jun-29 10:31N 53°20' E 007°11'0 0.0
2015-Jun-29 09:31N 53°20' E 007°11'0 0.0
2015-Jun-29 08:31N 53°20' E 007°11'0 0.0
2015-Jun-29 07:31N 53°20' E 007°11'0 0.0
2015-Jun-29 06:31N 53°20' E 007°11'0 0.0
2015-Jun-29 05:31N 53°20' E 007°11'0 0.0
2015-Jun-29 04:31N 53°20' E 007°11'0 0.0
2015-Jun-29 03:31N 53°20' E 007°11'0 0.0
2015-Jun-29 02:31N 53°20' E 007°11'0 0.0
2015-Jun-29 01:31N 53°20' E 007°11'0 0.0
2015-Jun-29 00:28N 53°20' E 007°11'0 0.0
2015-Jun-28 23:31N 53°20' E 007°11'0 0.0
2015-Jun-28 22:31N 53°20' E 007°11'0 0.0
2015-Jun-28 21:31N 53°20' E 007°11'0 0.0
2015-Jun-28 20:34N 53°20' E 007°11'0 0.0
2015-Jun-28 19:33N 53°20' E 007°11'0 0.0
2015-Jun-28 18:33N 53°20' E 007°11'0 0.0
2015-Jun-28 17:33N 53°20' E 007°11'0 0.0
2015-Jun-28 16:33N 53°20' E 007°11'0 0.0
2015-Jun-28 15:30N 53°20' E 007°11'0 0.0
2015-Jun-28 14:33N 53°20' E 007°11'0 0.0
2015-Jun-28 13:33N 53°20' E 007°11'0 0.0
2015-Jun-28 12:33N 53°20' E 007°11'0 0.0
2015-Jun-28 11:33N 53°20' E 007°11'0 0.0
2015-Jun-28 10:33N 53°20' E 007°11'0 0.0
2015-Jun-28 09:33N 53°20' E 007°11'0 0.0
2015-Jun-28 08:33N 53°20' E 007°11'0 0.0
2015-Jun-28 07:33N 53°20' E 007°11'0 0.0
2015-Jun-28 06:33N 53°20' E 007°11'0 0.0
2015-Jun-28 05:33N 53°20' E 007°11'0 0.0
2015-Jun-28 04:30N 53°20' E 007°11'0 0.0
2015-Jun-28 03:33N 53°20' E 007°11'0 0.0
2015-Jun-28 02:33N 53°20' E 007°11'0 0.0
2015-Jun-28 01:33N 53°20' E 007°11'0 0.0
2015-Jun-28 00:33N 53°20' E 007°11'0 0.0
2015-Jun-27 23:30N 53°20' E 007°11'0 0.0
2015-Jun-27 22:33N 53°20' E 007°11'0 0.0
2015-Jun-27 21:33N 53°20' E 007°11'0 0.0
2015-Jun-27 20:33N 53°20' E 007°11'0 0.0
2015-Jun-27 19:33N 53°20' E 007°11'0 0.0
2015-Jun-27 18:33N 53°20' E 007°11'0 0.0
2015-Jun-27 17:33N 53°20' E 007°11'0 0.0
2015-Jun-27 16:33N 53°20' E 007°11'0 0.0
2015-Jun-27 15:33N 53°20' E 007°11'0 0.0
2015-Jun-27 14:33N 53°20' E 007°11'0 0.0
2015-Jun-27 13:33N 53°20' E 007°11'0 0.0
2015-Jun-27 12:33N 53°20' E 007°11'0 0.0
2015-Jun-27 11:33N 53°20' E 007°11'0 0.0
2015-Jun-27 10:32N 53°20' E 007°11'0 0.0
2015-Jun-27 09:32N 53°20' E 007°11'0 0.0
2015-Jun-27 08:32N 53°20' E 007°11'0 0.0
2015-Jun-27 07:29N 53°20' E 007°11'0 0.0
2015-Jun-27 06:32N 53°20' E 007°11'0 0.0
2015-Jun-27 05:32N 53°20' E 007°11'0 0.0
2015-Jun-27 04:32N 53°20' E 007°11'0 0.0
2015-Jun-27 03:32N 53°20' E 007°11'0 0.0
2015-Jun-27 02:32N 53°20' E 007°11'0 0.0
2015-Jun-27 01:32N 53°20' E 007°11'0 0.0
2015-Jun-27 00:32N 53°20' E 007°11'0 0.0
2015-Jun-26 23:32N 53°20' E 007°11'0 0.0
2015-Jun-26 22:29N 53°20' E 007°11'0 0.0
2015-Jun-26 21:34N 53°20' E 007°11'5 4.6
2015-Jun-26 20:34N 53°19' E 007°03'7 6.6
2015-Jun-26 19:34N 53°25' E 006°56'7 7.3
2015-Jun-26 18:34N 53°30' E 006°48'1110.9
2015-Jun-26 17:33N 53°37' E 006°34'10 9.5
2015-Jun-26 16:33N 53°39' E 006°18'7 7.6
2015-Jun-26 15:34N 53°41' E 006°06'1515.0
2015-Jun-26 14:33N 53°37' E 005°41'1615.7
2015-Jun-26 13:33N 53°32' E 005°16'1616.0
2015-Jun-26 12:33N 53°26' E 004°51'1615.7
2015-Jun-26 11:33N 53°14' E 004°34'1616.2
2015-Jun-26 10:33N 52°60' E 004°21'1615.8
2015-Jun-26 09:33N 52°46' E 004°09'1615.5
2015-Jun-26 08:33N 52°34' E 003°51'1515.2
2015-Jun-26 07:33N 52°24' E 003°33'1514.8
2015-Jun-26 06:33N 52°14' E 003°15'1414.4
2015-Jun-26 05:33N 52°03' E 002°59'1413.9
2015-Jun-26 04:34N 51°52' E 002°46'1413.7
2015-Jun-26 03:33N 51°42' E 002°31'1413.6
2015-Jun-26 02:34N 51°32' E 002°17'1413.8
2015-Jun-26 01:33N 51°19' E 002°07'1313.0
2015-Jun-26 00:33N 51°11' E 001°52'1414.0
2015-Jun-25 23:33N 51°01' E 001°36'1414.2
2015-Jun-25 22:33N 50°48' E 001°25'1414.3
2015-Jun-25 21:33N 50°37' E 001°11'1414.2
2015-Jun-25 20:33N 50°28' E 000°54'1414.3
2015-Jun-25 19:33N 50°24' E 000°32'1414.1
2015-Jun-25 18:31N 50°21' E 000°10'1414.5
2015-Jun-25 17:33N 50°18' W 000°12'1515.0
2015-Jun-25 16:33N 50°13' W 000°34'1615.7
2015-Jun-25 15:33N 50°09' W 000°58'1616.2
2015-Jun-25 14:33N 50°05' W 001°22'1716.6
2015-Jun-25 13:33N 50°01' W 001°47'1616.4
2015-Jun-25 12:33N 49°56' W 002°12'1515.5
2015-Jun-25 11:33N 49°52' W 002°35'1514.6
2015-Jun-25 10:33N 49°48' W 002°57'1614.3
2015-Jun-25 09:26N 49°40' W 003°18'1314.2
2015-Jun-25 08:33N 49°33' W 003°35'1414.2
2015-Jun-25 07:33N 49°26' W 003°53'1513.9
2015-Jun-25 06:29N 49°19' W 004°13'1313.7
2015-Jun-25 05:33N 49°13' W 004°31'1413.8
2015-Jun-25 04:33N 49°05' W 004°48'1413.8
2015-Jun-25 03:33N 48°58' W 005°07'1413.8
2015-Jun-25 02:30N 48°51' W 005°26'1413.5
2015-Jun-25 01:26N 48°40' W 005°40'1214.1
2015-Jun-25 00:33N 48°30' W 005°49'1614.4
2015-Jun-24 23:28N 48°16' W 006°00'1314.4
2015-Jun-24 22:33N 48°04' W 006°09'1514.6
2015-Jun-24 21:33N 47°51' W 006°19'1514.8
2015-Jun-24 20:33N 47°38' W 006°29'1515.0
2015-Jun-24 19:33N 47°24' W 006°39'1514.7
2015-Jun-24 18:33N 47°11' W 006°48'  

Dump ship's entire track history